sensor_id;sensor_type;location;lat;lon;timestamp;temperature;humidity
3614;DHT22;1821;50.936;6.854;2024-02-26T00:00:33;7.40;99.90
3614;DHT22;1821;50.936;6.854;2024-02-26T00:01:16;7.50;99.90
3614;DHT22;1821;50.936;6.854;2024-02-26T00:01:58;7.40;99.90
3614;DHT22;1821;50.936;6.854;2024-02-26T00:03:23;7.00;99.90
3614;DHT22;1821;50.936;6.854;2024-02-26T00:04:05;7.10;99.90
3614;DHT22;1821;50.936;6.854;2024-02-26T00:04:47;7.00;99.90
3614;DHT22;1821;50.936;6.854;2024-02-26T00:05:29;7.20;99.90
3614;DHT22;1821;50.936;6.854;2024-02-26T00:06:13;7.40;99.90
3614;DHT22;1821;50.936;6.854;2024-02-26T00:06:55;7.50;99.90
3614;DHT22;1821;50.936;6.854;2024-02-26T00:07:37;7.30;99.90
3614;DHT22;1821;50.936;6.854;2024-02-26T00:08:20;7.00;99.90
3614;DHT22;1821;50.936;6.854;2024-02-26T00:09:02;7.50;99.90
3614;DHT22;1821;50.936;6.854;2024-02-26T00:09:47;7.00;99.90
3614;DHT22;1821;50.936;6.854;2024-02-26T00:10:29;7.00;99.90
3614;DHT22;1821;50.936;6.854;2024-02-26T00:11:53;7.30;99.90
3614;DHT22;1821;50.936;6.854;2024-02-26T00:12:36;7.30;99.90
3614;DHT22;1821;50.936;6.854;2024-02-26T00:13:21;7.20;99.90
3614;DHT22;1821;50.936;6.854;2024-02-26T00:14:04;6.90;99.90
3614;DHT22;1821;50.936;6.854;2024-02-26T00:14:46;7.40;99.90
3614;DHT22;1821;50.936;6.854;2024-02-26T00:16:12;7.20;99.90
3614;DHT22;1821;50.936;6.854;2024-02-26T00:16:54;7.10;99.90
3614;DHT22;1821;50.936;6.854;2024-02-26T00:17:36;7.40;99.90
3614;DHT22;1821;50.936;6.854;2024-02-26T00:18:18;7.00;99.90
3614;DHT22;1821;50.936;6.854;2024-02-26T00:19:00;7.40;99.90
3614;DHT22;1821;50.936;6.854;2024-02-26T00:19:42;7.00;99.90
3614;DHT22;1821;50.936;6.854;2024-02-26T00:20:24;7.30;99.90
3614;DHT22;1821;50.936;6.854;2024-02-26T00:21:06;7.40;99.90
3614;DHT22;1821;50.936;6.854;2024-02-26T00:21:48;7.10;99.90
3614;DHT22;1821;50.936;6.854;2024-02-26T00:22:32;7.00;99.90
3614;DHT22;1821;50.936;6.854;2024-02-26T00:23:15;7.00;99.90
3614;DHT22;1821;50.936;6.854;2024-02-26T00:23:57;7.40;99.90
3614;DHT22;1821;50.936;6.854;2024-02-26T00:24:40;7.30;99.90
3614;DHT22;1821;50.936;6.854;2024-02-26T00:25:23;7.20;99.90
3614;DHT22;1821;50.936;6.854;2024-02-26T00:26:05;7.10;99.90
3614;DHT22;1821;50.936;6.854;2024-02-26T00:26:46;7.10;99.90
3614;DHT22;1821;50.936;6.854;2024-02-26T00:27:34;7.30;99.90
3614;DHT22;1821;50.936;6.854;2024-02-26T00:28:16;7.00;99.90
3614;DHT22;1821;50.936;6.854;2024-02-26T00:28:58;6.70;99.90
3614;DHT22;1821;50.936;6.854;2024-02-26T00:29:40;7.10;99.90
3614;DHT22;1821;50.936;6.854;2024-02-26T00:30:22;7.00;99.90
3614;DHT22;1821;50.936;6.854;2024-02-26T00:31:47;6.90;99.90
3614;DHT22;1821;50.936;6.854;2024-02-26T00:32:29;7.40;99.90
3614;DHT22;1821;50.936;6.854;2024-02-26T00:33:11;7.50;99.90
3614;DHT22;1821;50.936;6.854;2024-02-26T00:33:53;7.20;99.90
3614;DHT22;1821;50.936;6.854;2024-02-26T00:34:35;7.40;99.90
3614;DHT22;1821;50.936;6.854;2024-02-26T00:35:17;7.20;99.90
3614;DHT22;1821;50.936;6.854;2024-02-26T00:36:02;7.50;99.90
3614;DHT22;1821;50.936;6.854;2024-02-26T00:36:44;7.60;99.90
3614;DHT22;1821;50.936;6.854;2024-02-26T00:37:26;7.50;99.90
3614;DHT22;1821;50.936;6.854;2024-02-26T00:38:07;6.90;99.90
3614;DHT22;1821;50.936;6.854;2024-02-26T00:38:49;7.10;99.90
3614;DHT22;1821;50.936;6.854;2024-02-26T00:39:34;7.10;99.90
3614;DHT22;1821;50.936;6.854;2024-02-26T00:40:16;7.00;99.90
3614;DHT22;1821;50.936;6.854;2024-02-26T00:40:59;7.00;99.90
3614;DHT22;1821;50.936;6.854;2024-02-26T00:41:41;7.10;99.90
3614;DHT22;1821;50.936;6.854;2024-02-26T00:42:23;7.10;99.90
3614;DHT22;1821;50.936;6.854;2024-02-26T00:43:05;6.90;99.90
3614;DHT22;1821;50.936;6.854;2024-02-26T00:43:47;6.80;99.90
3614;DHT22;1821;50.936;6.854;2024-02-26T00:44:29;7.10;99.90
3614;DHT22;1821;50.936;6.854;2024-02-26T00:45:53;7.10;99.90
3614;DHT22;1821;50.936;6.854;2024-02-26T00:46:35;7.10;99.90
3614;DHT22;1821;50.936;6.854;2024-02-26T00:47:17;7.20;99.90
3614;DHT22;1821;50.936;6.854;2024-02-26T00:48:00;6.90;99.90
3614;DHT22;1821;50.936;6.854;2024-02-26T00:48:46;7.40;99.90
3614;DHT22;1821;50.936;6.854;2024-02-26T00:49:28;7.40;99.90
3614;DHT22;1821;50.936;6.854;2024-02-26T00:50:10;7.10;99.90
3614;DHT22;1821;50.936;6.854;2024-02-26T00:50:52;7.10;99.90
3614;DHT22;1821;50.936;6.854;2024-02-26T00:51:34;7.00;99.90
3614;DHT22;1821;50.936;6.854;2024-02-26T00:52:16;7.10;99.90
3614;DHT22;1821;50.936;6.854;2024-02-26T00:53:01;7.00;99.90
3614;DHT22;1821;50.936;6.854;2024-02-26T00:53:46;6.90;99.90
3614;DHT22;1821;50.936;6.854;2024-02-26T00:54:28;7.00;99.90
3614;DHT22;1821;50.936;6.854;2024-02-26T00:55:10;7.10;99.90
3614;DHT22;1821;50.936;6.854;2024-02-26T00:55:52;7.10;99.90
3614;DHT22;1821;50.936;6.854;2024-02-26T00:56:34;6.90;99.90
3614;DHT22;1821;50.936;6.854;2024-02-26T00:57:16;6.90;99.90
3614;DHT22;1821;50.936;6.854;2024-02-26T00:57:58;7.10;99.90
3614;DHT22;1821;50.936;6.854;2024-02-26T00:58:40;7.10;99.90
3614;DHT22;1821;50.936;6.854;2024-02-26T00:59:22;7.40;99.90
3614;DHT22;1821;50.936;6.854;2024-02-26T01:00:04;7.40;99.90
3614;DHT22;1821;50.936;6.854;2024-02-26T01:00:47;7.30;99.90
3614;DHT22;1821;50.936;6.854;2024-02-26T01:01:29;7.40;99.90
3614;DHT22;1821;50.936;6.854;2024-02-26T01:02:11;7.40;99.90
3614;DHT22;1821;50.936;6.854;2024-02-26T01:02:52;7.00;99.90
3614;DHT22;1821;50.936;6.854;2024-02-26T01:03:34;6.70;99.90
3614;DHT22;1821;50.936;6.854;2024-02-26T01:04:17;6.90;99.90
3614;DHT22;1821;50.936;6.854;2024-02-26T01:04:59;7.00;99.90
3614;DHT22;1821;50.936;6.854;2024-02-26T01:05:41;6.80;99.90
3614;DHT22;1821;50.936;6.854;2024-02-26T01:06:23;6.40;99.90
3614;DHT22;1821;50.936;6.854;2024-02-26T01:07:05;7.00;99.90
3614;DHT22;1821;50.936;6.854;2024-02-26T01:07:48;7.00;99.90
3614;DHT22;1821;50.936;6.854;2024-02-26T01:08:30;7.20;99.90
3614;DHT22;1821;50.936;6.854;2024-02-26T01:09:13;6.70;99.90
3614;DHT22;1821;50.936;6.854;2024-02-26T01:09:55;7.20;99.90
3614;DHT22;1821;50.936;6.854;2024-02-26T01:10:37;6.80;99.90
3614;DHT22;1821;50.936;6.854;2024-02-26T01:11:19;6.80;99.90
3614;DHT22;1821;50.936;6.854;2024-02-26T01:13:27;6.80;99.90
3614;DHT22;1821;50.936;6.854;2024-02-26T01:14:09;6.90;99.90
3614;DHT22;1821;50.936;6.854;2024-02-26T01:14:51;7.10;99.90
3614;DHT22;1821;50.936;6.854;2024-02-26T01:15:33;6.70;99.90
3614;DHT22;1821;50.936;6.854;2024-02-26T01:16:15;6.80;99.90
3614;DHT22;1821;50.936;6.854;2024-02-26T01:16:57;6.90;99.90
3614;DHT22;1821;50.936;6.854;2024-02-26T01:17:38;6.70;99.90
3614;DHT22;1821;50.936;6.854;2024-02-26T01:19:04;7.00;99.90
3614;DHT22;1821;50.936;6.854;2024-02-26T01:19:46;6.60;99.90
3614;DHT22;1821;50.936;6.854;2024-02-26T01:20:28;6.70;99.90
3614;DHT22;1821;50.936;6.854;2024-02-26T01:21:10;6.70;99.90
3614;DHT22;1821;50.936;6.854;2024-02-26T01:21:52;6.60;99.90
3614;DHT22;1821;50.936;6.854;2024-02-26T01:22:34;6.70;99.90
3614;DHT22;1821;50.936;6.854;2024-02-26T01:23:17;6.60;99.90
3614;DHT22;1821;50.936;6.854;2024-02-26T01:24:42;6.90;99.90
3614;DHT22;1821;50.936;6.854;2024-02-26T01:25:24;6.60;99.90
3614;DHT22;1821;50.936;6.854;2024-02-26T01:26:06;6.80;99.90
3614;DHT22;1821;50.936;6.854;2024-02-26T01:26:49;6.90;99.90
3614;DHT22;1821;50.936;6.854;2024-02-26T01:27:31;6.80;99.90
3614;DHT22;1821;50.936;6.854;2024-02-26T01:28:12;6.60;99.90
3614;DHT22;1821;50.936;6.854;2024-02-26T01:29:37;6.70;99.90
3614;DHT22;1821;50.936;6.854;2024-02-26T01:30:22;7.50;99.90
3614;DHT22;1821;50.936;6.854;2024-02-26T01:31:05;6.80;99.90
3614;DHT22;1821;50.936;6.854;2024-02-26T01:31:49;7.00;99.90
3614;DHT22;1821;50.936;6.854;2024-02-26T01:32:31;6.90;99.90
3614;DHT22;1821;50.936;6.854;2024-02-26T01:33:14;6.80;99.90
3614;DHT22;1821;50.936;6.854;2024-02-26T01:33:56;6.70;99.90
3614;DHT22;1821;50.936;6.854;2024-02-26T01:34:38;6.90;99.90
3614;DHT22;1821;50.936;6.854;2024-02-26T01:35:20;6.80;99.90
3614;DHT22;1821;50.936;6.854;2024-02-26T01:36:02;6.80;99.90
3614;DHT22;1821;50.936;6.854;2024-02-26T01:36:44;7.00;99.90
3614;DHT22;1821;50.936;6.854;2024-02-26T01:37:26;6.70;99.90
3614;DHT22;1821;50.936;6.854;2024-02-26T01:38:08;6.80;99.90
3614;DHT22;1821;50.936;6.854;2024-02-26T01:38:50;6.90;99.90
3614;DHT22;1821;50.936;6.854;2024-02-26T01:39:32;6.50;99.90
3614;DHT22;1821;50.936;6.854;2024-02-26T01:40:14;6.70;99.90
3614;DHT22;1821;50.936;6.854;2024-02-26T01:40:59;7.00;99.90
3614;DHT22;1821;50.936;6.854;2024-02-26T01:41:42;7.60;99.90
3614;DHT22;1821;50.936;6.854;2024-02-26T01:42:24;6.70;99.90
3614;DHT22;1821;50.936;6.854;2024-02-26T01:43:05;7.10;99.90
3614;DHT22;1821;50.936;6.854;2024-02-26T01:43:47;6.60;99.90
3614;DHT22;1821;50.936;6.854;2024-02-26T01:44:29;6.80;99.90
3614;DHT22;1821;50.936;6.854;2024-02-26T01:45:15;6.60;99.90
3614;DHT22;1821;50.936;6.854;2024-02-26T01:45:58;7.00;99.90
3614;DHT22;1821;50.936;6.854;2024-02-26T01:46:40;6.90;99.90
3614;DHT22;1821;50.936;6.854;2024-02-26T01:47:22;6.90;99.90
3614;DHT22;1821;50.936;6.854;2024-02-26T01:48:05;6.40;99.90
3614;DHT22;1821;50.936;6.854;2024-02-26T01:48:47;7.10;99.90
3614;DHT22;1821;50.936;6.854;2024-02-26T01:49:31;6.70;99.90
3614;DHT22;1821;50.936;6.854;2024-02-26T01:50:17;6.50;99.90
3614;DHT22;1821;50.936;6.854;2024-02-26T01:50:59;6.90;99.90
3614;DHT22;1821;50.936;6.854;2024-02-26T01:51:43;6.80;99.90
3614;DHT22;1821;50.936;6.854;2024-02-26T01:52:25;6.70;99.90
3614;DHT22;1821;50.936;6.854;2024-02-26T01:53:08;6.70;99.90
3614;DHT22;1821;50.936;6.854;2024-02-26T01:53:51;6.80;99.90
3614;DHT22;1821;50.936;6.854;2024-02-26T01:54:35;6.60;99.90
3614;DHT22;1821;50.936;6.854;2024-02-26T01:55:18;6.50;99.90
3614;DHT22;1821;50.936;6.854;2024-02-26T01:56:01;6.70;99.90
3614;DHT22;1821;50.936;6.854;2024-02-26T01:56:44;6.40;99.90
3614;DHT22;1821;50.936;6.854;2024-02-26T01:57:27;6.80;99.90
3614;DHT22;1821;50.936;6.854;2024-02-26T01:58:09;6.70;99.90
3614;DHT22;1821;50.936;6.854;2024-02-26T01:58:51;6.40;99.90
3614;DHT22;1821;50.936;6.854;2024-02-26T01:59:34;6.40;99.90
3614;DHT22;1821;50.936;6.854;2024-02-26T02:00:17;6.70;99.90
3614;DHT22;1821;50.936;6.854;2024-02-26T02:01:01;6.70;99.90
3614;DHT22;1821;50.936;6.854;2024-02-26T02:01:48;6.60;1.00
3614;DHT22;1821;50.936;6.854;2024-02-26T02:02:30;6.60;99.90
3614;DHT22;1821;50.936;6.854;2024-02-26T02:03:12;6.50;99.90
3614;DHT22;1821;50.936;6.854;2024-02-26T02:03:57;6.90;99.90
3614;DHT22;1821;50.936;6.854;2024-02-26T02:04:45;6.70;99.90
3614;DHT22;1821;50.936;6.854;2024-02-26T02:05:28;6.70;1.00
3614;DHT22;1821;50.936;6.854;2024-02-26T02:06:11;6.40;99.90
3614;DHT22;1821;50.936;6.854;2024-02-26T02:06:54;6.90;99.90
3614;DHT22;1821;50.936;6.854;2024-02-26T02:07:36;6.40;99.90
3614;DHT22;1821;50.936;6.854;2024-02-26T02:09:01;6.70;99.90
3614;DHT22;1821;50.936;6.854;2024-02-26T02:09:48;6.60;99.90
3614;DHT22;1821;50.936;6.854;2024-02-26T02:10:30;6.60;99.90
3614;DHT22;1821;50.936;6.854;2024-02-26T02:11:12;6.60;99.90
3614;DHT22;1821;50.936;6.854;2024-02-26T02:11:56;6.50;99.90
3614;DHT22;1821;50.936;6.854;2024-02-26T02:12:39;6.50;99.90
3614;DHT22;1821;50.936;6.854;2024-02-26T02:13:22;6.50;99.90
3614;DHT22;1821;50.936;6.854;2024-02-26T02:14:04;6.50;1.00
3614;DHT22;1821;50.936;6.854;2024-02-26T02:14:45;6.60;1.00
3614;DHT22;1821;50.936;6.854;2024-02-26T02:15:30;6.50;1.00
3614;DHT22;1821;50.936;6.854;2024-02-26T02:16:14;6.50;99.90
3614;DHT22;1821;50.936;6.854;2024-02-26T02:17:41;6.60;99.90
3614;DHT22;1821;50.936;6.854;2024-02-26T02:18:23;6.60;99.90
3614;DHT22;1821;50.936;6.854;2024-02-26T02:19:05;6.80;99.90
3614;DHT22;1821;50.936;6.854;2024-02-26T02:19:47;6.40;99.90
3614;DHT22;1821;50.936;6.854;2024-02-26T02:21:18;6.80;99.90
3614;DHT22;1821;50.936;6.854;2024-02-26T02:22:44;6.30;99.90
3614;DHT22;1821;50.936;6.854;2024-02-26T02:23:26;6.90;99.90
3614;DHT22;1821;50.936;6.854;2024-02-26T02:24:08;6.40;99.90
3614;DHT22;1821;50.936;6.854;2024-02-26T02:24:52;6.40;99.90
3614;DHT22;1821;50.936;6.854;2024-02-26T02:25:34;6.40;99.90
3614;DHT22;1821;50.936;6.854;2024-02-26T02:26:16;6.60;99.90
3614;DHT22;1821;50.936;6.854;2024-02-26T02:26:59;6.50;99.90
3614;DHT22;1821;50.936;6.854;2024-02-26T02:27:42;6.50;1.00
3614;DHT22;1821;50.936;6.854;2024-02-26T02:28:26;6.30;1.00
3614;DHT22;1821;50.936;6.854;2024-02-26T02:29:09;6.80;99.90
3614;DHT22;1821;50.936;6.854;2024-02-26T02:29:51;6.90;99.90
3614;DHT22;1821;50.936;6.854;2024-02-26T02:30:33;6.80;99.90
3614;DHT22;1821;50.936;6.854;2024-02-26T02:31:17;6.90;99.90
3614;DHT22;1821;50.936;6.854;2024-02-26T02:32:01;6.80;99.90
3614;DHT22;1821;50.936;6.854;2024-02-26T02:32:44;6.50;99.90
3614;DHT22;1821;50.936;6.854;2024-02-26T02:33:26;6.40;99.90
3614;DHT22;1821;50.936;6.854;2024-02-26T02:34:09;6.50;99.90
3614;DHT22;1821;50.936;6.854;2024-02-26T02:34:52;6.30;99.90
3614;DHT22;1821;50.936;6.854;2024-02-26T02:35:34;6.90;99.90
3614;DHT22;1821;50.936;6.854;2024-02-26T02:36:16;6.70;99.90
3614;DHT22;1821;50.936;6.854;2024-02-26T02:36:58;6.40;99.90
3614;DHT22;1821;50.936;6.854;2024-02-26T02:37:40;6.50;99.90
3614;DHT22;1821;50.936;6.854;2024-02-26T02:38:22;6.60;99.90
3614;DHT22;1821;50.936;6.854;2024-02-26T02:39:05;6.60;99.90
3614;DHT22;1821;50.936;6.854;2024-02-26T02:40:30;6.60;99.90
3614;DHT22;1821;50.936;6.854;2024-02-26T02:41:12;6.50;99.90
3614;DHT22;1821;50.936;6.854;2024-02-26T02:41:54;6.90;99.90
3614;DHT22;1821;50.936;6.854;2024-02-26T02:42:35;6.70;99.90
3614;DHT22;1821;50.936;6.854;2024-02-26T02:43:20;6.80;99.90
3614;DHT22;1821;50.936;6.854;2024-02-26T02:44:02;6.90;99.90
3614;DHT22;1821;50.936;6.854;2024-02-26T02:44:44;6.70;99.90
3614;DHT22;1821;50.936;6.854;2024-02-26T02:45:26;6.50;99.90
3614;DHT22;1821;50.936;6.854;2024-02-26T02:46:08;6.70;99.90
3614;DHT22;1821;50.936;6.854;2024-02-26T02:46:50;6.80;1.00
3614;DHT22;1821;50.936;6.854;2024-02-26T02:47:37;6.40;1.00
3614;DHT22;1821;50.936;6.854;2024-02-26T02:48:19;6.70;99.90
3614;DHT22;1821;50.936;6.854;2024-02-26T02:49:01;6.50;99.90
3614;DHT22;1821;50.936;6.854;2024-02-26T02:49:44;6.50;1.00
3614;DHT22;1821;50.936;6.854;2024-02-26T02:50:26;6.80;99.90
3614;DHT22;1821;50.936;6.854;2024-02-26T02:51:08;6.50;99.90
3614;DHT22;1821;50.936;6.854;2024-02-26T02:52:35;6.80;99.90
3614;DHT22;1821;50.936;6.854;2024-02-26T02:53:17;6.90;99.90
3614;DHT22;1821;50.936;6.854;2024-02-26T02:54:00;6.40;99.90
3614;DHT22;1821;50.936;6.854;2024-02-26T02:55:28;6.40;99.90
3614;DHT22;1821;50.936;6.854;2024-02-26T02:56:10;6.70;99.90
3614;DHT22;1821;50.936;6.854;2024-02-26T02:56:55;6.40;99.90
3614;DHT22;1821;50.936;6.854;2024-02-26T02:57:37;6.40;99.90
3614;DHT22;1821;50.936;6.854;2024-02-26T02:58:23;6.40;99.90
3614;DHT22;1821;50.936;6.854;2024-02-26T02:59:05;6.60;99.90
3614;DHT22;1821;50.936;6.854;2024-02-26T02:59:47;6.50;99.90
3614;DHT22;1821;50.936;6.854;2024-02-26T03:00:29;6.40;1.00
3614;DHT22;1821;50.936;6.854;2024-02-26T03:01:12;6.30;1.00
3614;DHT22;1821;50.936;6.854;2024-02-26T03:01:55;6.60;99.90
3614;DHT22;1821;50.936;6.854;2024-02-26T03:02:37;6.50;99.90
3614;DHT22;1821;50.936;6.854;2024-02-26T03:03:19;6.80;99.90
3614;DHT22;1821;50.936;6.854;2024-02-26T03:04:01;6.40;1.00
3614;DHT22;1821;50.936;6.854;2024-02-26T03:04:46;6.80;99.90
3614;DHT22;1821;50.936;6.854;2024-02-26T03:05:28;6.40;1.00
3614;DHT22;1821;50.936;6.854;2024-02-26T03:06:10;6.80;1.00
3614;DHT22;1821;50.936;6.854;2024-02-26T03:08:17;6.80;99.90
3614;DHT22;1821;50.936;6.854;2024-02-26T03:09:01;6.30;99.90
3614;DHT22;1821;50.936;6.854;2024-02-26T03:09:43;6.60;99.90
3614;DHT22;1821;50.936;6.854;2024-02-26T03:10:25;6.50;99.90
3614;DHT22;1821;50.936;6.854;2024-02-26T03:11:07;6.70;99.90
3614;DHT22;1821;50.936;6.854;2024-02-26T03:11:50;6.40;99.90
3614;DHT22;1821;50.936;6.854;2024-02-26T03:12:34;6.30;99.90
3614;DHT22;1821;50.936;6.854;2024-02-26T03:13:16;6.70;99.90
3614;DHT22;1821;50.936;6.854;2024-02-26T03:13:58;6.20;99.90
3614;DHT22;1821;50.936;6.854;2024-02-26T03:14:40;6.40;99.90
3614;DHT22;1821;50.936;6.854;2024-02-26T03:15:22;6.50;1.00
3614;DHT22;1821;50.936;6.854;2024-02-26T03:16:05;6.30;1.00
3614;DHT22;1821;50.936;6.854;2024-02-26T03:16:53;6.60;99.90
3614;DHT22;1821;50.936;6.854;2024-02-26T03:17:35;6.60;1.00
3614;DHT22;1821;50.936;6.854;2024-02-26T03:18:20;6.60;99.90
3614;DHT22;1821;50.936;6.854;2024-02-26T03:19:03;6.80;99.90
3614;DHT22;1821;50.936;6.854;2024-02-26T03:19:46;6.40;99.90
3614;DHT22;1821;50.936;6.854;2024-02-26T03:21:11;6.50;99.90
3614;DHT22;1821;50.936;6.854;2024-02-26T03:21:53;6.40;99.90
3614;DHT22;1821;50.936;6.854;2024-02-26T03:22:35;6.30;99.90
3614;DHT22;1821;50.936;6.854;2024-02-26T03:23:17;6.60;99.90
3614;DHT22;1821;50.936;6.854;2024-02-26T03:23:59;6.80;99.90
3614;DHT22;1821;50.936;6.854;2024-02-26T03:24:41;6.50;99.90
3614;DHT22;1821;50.936;6.854;2024-02-26T03:25:23;6.30;99.90
3614;DHT22;1821;50.936;6.854;2024-02-26T03:26:05;6.60;1.00
3614;DHT22;1821;50.936;6.854;2024-02-26T03:26:47;6.60;99.90
3614;DHT22;1821;50.936;6.854;2024-02-26T03:27:29;6.50;1.00
3614;DHT22;1821;50.936;6.854;2024-02-26T03:28:11;6.70;99.90
3614;DHT22;1821;50.936;6.854;2024-02-26T03:28:54;6.60;99.90
3614;DHT22;1821;50.936;6.854;2024-02-26T03:29:38;6.50;99.90
3614;DHT22;1821;50.936;6.854;2024-02-26T03:30:20;6.50;99.90
3614;DHT22;1821;50.936;6.854;2024-02-26T03:31:02;6.60;99.90
3614;DHT22;1821;50.936;6.854;2024-02-26T03:31:44;6.80;99.90
3614;DHT22;1821;50.936;6.854;2024-02-26T03:32:26;6.60;99.90
3614;DHT22;1821;50.936;6.854;2024-02-26T03:33:51;6.40;99.90
3614;DHT22;1821;50.936;6.854;2024-02-26T03:34:33;6.80;99.90
3614;DHT22;1821;50.936;6.854;2024-02-26T03:35:18;6.70;99.90
3614;DHT22;1821;50.936;6.854;2024-02-26T03:36:00;6.30;99.90
3614;DHT22;1821;50.936;6.854;2024-02-26T03:37:24;6.30;99.90
3614;DHT22;1821;50.936;6.854;2024-02-26T03:38:49;6.60;99.90
3614;DHT22;1821;50.936;6.854;2024-02-26T03:39:33;6.20;99.90
3614;DHT22;1821;50.936;6.854;2024-02-26T03:40:15;6.40;99.90
3614;DHT22;1821;50.936;6.854;2024-02-26T03:40:58;6.50;99.90
3614;DHT22;1821;50.936;6.854;2024-02-26T03:41:40;6.60;99.90
3614;DHT22;1821;50.936;6.854;2024-02-26T03:42:22;6.80;99.90
3614;DHT22;1821;50.936;6.854;2024-02-26T03:43:04;6.30;1.00
3614;DHT22;1821;50.936;6.854;2024-02-26T03:43:51;6.40;99.90
3614;DHT22;1821;50.936;6.854;2024-02-26T03:44:33;6.30;99.90
3614;DHT22;1821;50.936;6.854;2024-02-26T03:45:15;6.40;99.90
3614;DHT22;1821;50.936;6.854;2024-02-26T03:45:57;6.90;99.90
3614;DHT22;1821;50.936;6.854;2024-02-26T03:46:39;6.70;1.00
3614;DHT22;1821;50.936;6.854;2024-02-26T03:47:21;6.60;1.00
3614;DHT22;1821;50.936;6.854;2024-02-26T03:48:03;6.70;1.00
3614;DHT22;1821;50.936;6.854;2024-02-26T03:48:45;6.40;99.90
3614;DHT22;1821;50.936;6.854;2024-02-26T03:49:27;6.40;99.90
3614;DHT22;1821;50.936;6.854;2024-02-26T03:50:10;6.80;99.90
3614;DHT22;1821;50.936;6.854;2024-02-26T03:50:52;6.30;1.00
3614;DHT22;1821;50.936;6.854;2024-02-26T03:51:34;6.70;1.00
3614;DHT22;1821;50.936;6.854;2024-02-26T03:52:16;6.90;99.90
3614;DHT22;1821;50.936;6.854;2024-02-26T03:52:58;6.80;99.90
3614;DHT22;1821;50.936;6.854;2024-02-26T03:53:40;6.30;99.90
3614;DHT22;1821;50.936;6.854;2024-02-26T03:54:22;6.40;1.00
3614;DHT22;1821;50.936;6.854;2024-02-26T03:55:04;6.70;1.00
3614;DHT22;1821;50.936;6.854;2024-02-26T03:55:46;6.70;99.90
3614;DHT22;1821;50.936;6.854;2024-02-26T03:56:30;6.80;1.00
3614;DHT22;1821;50.936;6.854;2024-02-26T03:57:12;6.70;99.90
3614;DHT22;1821;50.936;6.854;2024-02-26T03:57:54;6.40;99.90
3614;DHT22;1821;50.936;6.854;2024-02-26T03:58:36;6.40;99.90
3614;DHT22;1821;50.936;6.854;2024-02-26T03:59:20;6.70;1.00
3614;DHT22;1821;50.936;6.854;2024-02-26T04:00:04;6.60;99.90
3614;DHT22;1821;50.936;6.854;2024-02-26T04:01:29;6.50;99.90
3614;DHT22;1821;50.936;6.854;2024-02-26T04:02:11;6.50;1.00
3614;DHT22;1821;50.936;6.854;2024-02-26T04:02:53;6.40;1.00
3614;DHT22;1821;50.936;6.854;2024-02-26T04:03:35;6.30;1.00
3614;DHT22;1821;50.936;6.854;2024-02-26T04:04:17;6.20;99.90
3614;DHT22;1821;50.936;6.854;2024-02-26T04:04:59;6.50;99.90
3614;DHT22;1821;50.936;6.854;2024-02-26T04:05:41;6.50;99.90
3614;DHT22;1821;50.936;6.854;2024-02-26T04:06:23;6.30;99.90
3614;DHT22;1821;50.936;6.854;2024-02-26T04:07:05;6.50;99.90
3614;DHT22;1821;50.936;6.854;2024-02-26T04:07:48;6.80;99.90
3614;DHT22;1821;50.936;6.854;2024-02-26T04:08:30;6.40;99.90
3614;DHT22;1821;50.936;6.854;2024-02-26T04:09:15;6.70;99.90
3614;DHT22;1821;50.936;6.854;2024-02-26T04:09:58;6.80;99.90
3614;DHT22;1821;50.936;6.854;2024-02-26T04:10:41;6.70;99.90
3614;DHT22;1821;50.936;6.854;2024-02-26T04:11:24;6.70;1.00
3614;DHT22;1821;50.936;6.854;2024-02-26T04:12:06;6.30;1.00
3614;DHT22;1821;50.936;6.854;2024-02-26T04:12:48;6.80;99.90
3614;DHT22;1821;50.936;6.854;2024-02-26T04:13:30;6.40;99.90
3614;DHT22;1821;50.936;6.854;2024-02-26T04:14:54;6.30;99.90
3614;DHT22;1821;50.936;6.854;2024-02-26T04:15:36;6.70;99.90
3614;DHT22;1821;50.936;6.854;2024-02-26T04:16:19;6.70;99.90
3614;DHT22;1821;50.936;6.854;2024-02-26T04:18:30;6.40;99.90
3614;DHT22;1821;50.936;6.854;2024-02-26T04:19:13;6.40;99.90
3614;DHT22;1821;50.936;6.854;2024-02-26T04:19:55;6.60;99.90
3614;DHT22;1821;50.936;6.854;2024-02-26T04:20:37;6.20;1.00
3614;DHT22;1821;50.936;6.854;2024-02-26T04:21:19;6.20;99.90
3614;DHT22;1821;50.936;6.854;2024-02-26T04:22:01;6.20;99.90
3614;DHT22;1821;50.936;6.854;2024-02-26T04:22:45;6.30;99.90
3614;DHT22;1821;50.936;6.854;2024-02-26T04:23:27;6.40;1.00
3614;DHT22;1821;50.936;6.854;2024-02-26T04:24:09;6.50;1.00
3614;DHT22;1821;50.936;6.854;2024-02-26T04:24:51;6.50;99.90
3614;DHT22;1821;50.936;6.854;2024-02-26T04:25:33;6.50;99.90
3614;DHT22;1821;50.936;6.854;2024-02-26T04:27:00;6.60;99.90
3614;DHT22;1821;50.936;6.854;2024-02-26T04:27:44;6.10;99.90
3614;DHT22;1821;50.936;6.854;2024-02-26T04:28:26;6.70;99.90
3614;DHT22;1821;50.936;6.854;2024-02-26T04:29:10;6.50;99.90
3614;DHT22;1821;50.936;6.854;2024-02-26T04:29:52;6.80;1.00
3614;DHT22;1821;50.936;6.854;2024-02-26T04:30:34;6.20;99.90
3614;DHT22;1821;50.936;6.854;2024-02-26T04:31:16;6.20;1.00
3614;DHT22;1821;50.936;6.854;2024-02-26T04:32:41;6.60;99.90
3614;DHT22;1821;50.936;6.854;2024-02-26T04:33:23;6.70;99.90
3614;DHT22;1821;50.936;6.854;2024-02-26T04:34:05;6.30;99.90
3614;DHT22;1821;50.936;6.854;2024-02-26T04:34:47;6.50;99.90
3614;DHT22;1821;50.936;6.854;2024-02-26T04:35:29;6.50;99.90
3614;DHT22;1821;50.936;6.854;2024-02-26T04:36:14;6.80;99.90
3614;DHT22;1821;50.936;6.854;2024-02-26T04:36:59;6.20;99.90
3614;DHT22;1821;50.936;6.854;2024-02-26T04:37:41;6.30;99.90
3614;DHT22;1821;50.936;6.854;2024-02-26T04:38:23;6.70;99.90
3614;DHT22;1821;50.936;6.854;2024-02-26T04:39:05;6.60;99.90
3614;DHT22;1821;50.936;6.854;2024-02-26T04:39:48;6.20;1.00
3614;DHT22;1821;50.936;6.854;2024-02-26T04:41:14;6.10;99.90
3614;DHT22;1821;50.936;6.854;2024-02-26T04:41:56;6.20;1.00
3614;DHT22;1821;50.936;6.854;2024-02-26T04:42:38;6.40;99.90
3614;DHT22;1821;50.936;6.854;2024-02-26T04:43:20;6.30;99.90
3614;DHT22;1821;50.936;6.854;2024-02-26T04:44:04;6.40;1.00
3614;DHT22;1821;50.936;6.854;2024-02-26T04:44:46;6.70;99.90
3614;DHT22;1821;50.936;6.854;2024-02-26T04:46:10;6.30;99.90
3614;DHT22;1821;50.936;6.854;2024-02-26T04:47:35;6.40;99.90
3614;DHT22;1821;50.936;6.854;2024-02-26T04:48:17;6.40;99.90
3614;DHT22;1821;50.936;6.854;2024-02-26T04:48:59;6.40;99.90
3614;DHT22;1821;50.936;6.854;2024-02-26T04:49:41;6.70;99.90
3614;DHT22;1821;50.936;6.854;2024-02-26T04:50:23;6.10;1.00
3614;DHT22;1821;50.936;6.854;2024-02-26T04:51:06;6.50;1.00
3614;DHT22;1821;50.936;6.854;2024-02-26T04:52:30;6.60;99.90
3614;DHT22;1821;50.936;6.854;2024-02-26T04:53:54;6.60;99.90
3614;DHT22;1821;50.936;6.854;2024-02-26T04:54:36;6.20;99.90
3614;DHT22;1821;50.936;6.854;2024-02-26T04:55:21;6.30;99.90
3614;DHT22;1821;50.936;6.854;2024-02-26T04:56:04;6.50;99.90
3614;DHT22;1821;50.936;6.854;2024-02-26T04:56:46;6.40;99.90
3614;DHT22;1821;50.936;6.854;2024-02-26T04:57:30;6.60;1.00
3614;DHT22;1821;50.936;6.854;2024-02-26T04:58:12;6.10;99.90
3614;DHT22;1821;50.936;6.854;2024-02-26T04:58:54;6.50;99.90
3614;DHT22;1821;50.936;6.854;2024-02-26T05:00:18;6.30;99.90
3614;DHT22;1821;50.936;6.854;2024-02-26T05:01:00;6.30;1.00
3614;DHT22;1821;50.936;6.854;2024-02-26T05:01:42;6.50;99.90
3614;DHT22;1821;50.936;6.854;2024-02-26T05:02:24;6.40;99.90
3614;DHT22;1821;50.936;6.854;2024-02-26T05:03:06;6.60;99.90
3614;DHT22;1821;50.936;6.854;2024-02-26T05:03:49;6.40;99.90
3614;DHT22;1821;50.936;6.854;2024-02-26T05:04:31;6.30;99.90
3614;DHT22;1821;50.936;6.854;2024-02-26T05:05:13;6.50;1.00
3614;DHT22;1821;50.936;6.854;2024-02-26T05:05:55;6.20;99.90
3614;DHT22;1821;50.936;6.854;2024-02-26T05:06:39;6.40;99.90
3614;DHT22;1821;50.936;6.854;2024-02-26T05:08:04;6.30;99.90
3614;DHT22;1821;50.936;6.854;2024-02-26T05:09:30;6.60;99.90